Time;durP1;ratioP1;P1;durP2;ratioP2;P2;SDS_P1;SDS_P2;PMS_P1;PMS_P2;Temp;Humidity;BMP_temperature;BMP_pressure;BME280_temperature;BME280_humidity;BME280_pressure;Samples;Min_cycle;Max_cycle;Signal;HPM_P1;HPM_P2
2023/09/11 00:01:15;;;;;;;25.08;15.15;;;22.20;99.90;;;;;;5086378;28;20040;-74
2023/09/11 00:03:41;;;;;;;26.23;14.77;;;22.20;99.90;;;;;;5080260;28;20108;-74
2023/09/11 00:06:07;;;;;;;20.83;14.20;;;22.10;99.90;;;;;;5069423;28;20121;-74
2023/09/11 00:08:34;;;;;;;24.58;14.55;;;22.10;99.90;;;;;;5058694;28;20029;-74
2023/09/11 00:11:00;;;;;;;26.95;15.00;;;22.20;99.90;;;;;;5084407;28;20040;-74
2023/09/11 00:13:27;;;;;;;22.67;14.80;;;22.10;99.90;;;;;;5064810;28;20044;-75
2023/09/11 00:15:52;;;;;;;21.77;14.65;;;22.10;99.90;;;;;;5083244;28;20040;-74
2023/09/11 00:18:18;;;;;;;28.17;16.58;;;22.10;99.90;;;;;;5087368;28;20081;-74
2023/09/11 00:20:44;;;;;;;22.67;14.38;;;22.10;99.90;;;;;;5083482;28;20040;-74
2023/09/11 00:23:09;;;;;;;24.60;15.13;;;22.00;99.90;;;;;;5054638;28;20048;-74
2023/09/11 00:25:35;;;;;;;26.88;16.15;;;22.00;99.90;;;;;;5066881;28;20052;-74
2023/09/11 00:28:02;;;;;;;24.17;16.42;;;22.00;99.90;;;;;;5055111;28;20128;-74
2023/09/11 00:30:27;;;;;;;23.80;15.27;;;21.90;99.90;;;;;;5065836;28;20369;-75
2023/09/11 00:32:53;;;;;;;23.05;14.75;;;21.90;99.90;;;;;;5058099;28;20097;-74
2023/09/11 00:35:19;;;;;;;25.45;15.98;;;21.90;99.90;;;;;;5065370;28;20067;-74
2023/09/11 00:37:44;;;;;;;22.67;15.90;;;21.80;99.90;;;;;;5071390;28;20044;-74
2023/09/11 00:40:10;;;;;;;25.30;16.25;;;21.80;99.90;;;;;;5088915;28;20066;-75
2023/09/11 00:42:36;;;;;;;22.77;16.45;;;21.80;99.90;;;;;;5073268;28;20051;-74
2023/09/11 00:45:02;;;;;;;23.73;15.65;;;21.80;99.90;;;;;;5062507;28;20043;-74
2023/09/11 00:47:28;;;;;;;26.17;16.30;;;21.80;99.90;;;;;;5059854;28;20051;-74
2023/09/11 00:49:56;;;;;;;21.77;15.95;;;21.70;99.90;;;;;;5067550;28;20051;-74
2023/09/11 00:52:23;;;;;;;26.67;15.15;;;21.70;99.90;;;;;;5083065;28;20036;-74
2023/09/11 00:54:51;;;;;;;26.90;15.67;;;21.70;99.90;;;;;;5072151;28;20036;-74
2023/09/11 00:57:18;;;;;;;24.35;15.82;;;21.70;99.90;;;;;;5070393;28;20048;-74
2023/09/11 00:59:44;;;;;;;;;;;21.70;99.90;;;;;;5074705;28;20055;-74
2023/09/11 01:02:12;;;;;;;21.83;16.92;;;21.60;99.90;;;;;;5084233;28;19930;-74
2023/09/11 01:04:39;;;;;;;25.10;16.05;;;21.60;99.90;;;;;;5084736;28;20059;-74
2023/09/11 01:07:05;;;;;;;26.95;15.60;;;21.60;99.90;;;;;;5088860;28;20041;-74
2023/09/11 01:09:33;;;;;;;23.35;16.70;;;21.60;99.90;;;;;;5082184;28;20098;-74
2023/09/11 01:11:58;;;;;;;22.60;16.25;;;21.50;99.90;;;;;;5092488;28;20530;-74
2023/09/11 01:14:25;;;;;;;25.30;16.65;;;21.50;99.90;;;;;;5061520;28;20143;-74
2023/09/11 01:17:11;;;;;;;27.63;17.02;;;21.50;99.90;;;;;;5085507;28;20114;-74
2023/09/11 01:20:09;;;;;;;25.50;16.90;;;21.50;99.90;;;;;;5063008;28;20399;-75
2023/09/11 01:22:56;;;;;;;24.65;15.57;;;21.50;99.90;;;;;;5028828;28;20136;-74
2023/09/11 01:25:56;;;;;;;22.50;15.98;;;21.50;99.90;;;;;;5083400;28;20039;-74
2023/09/11 01:28:52;;;;;;;25.55;16.88;;;21.40;99.90;;;;;;5071551;28;20055;-74
2023/09/11 01:31:18;;;;;;;25.38;16.70;;;21.40;99.90;;;;;;5063756;28;20052;-74
2023/09/11 01:33:44;;;;;;;24.60;16.42;;;21.40;99.90;;;;;;5068155;28;20048;-74
2023/09/11 01:36:10;;;;;;;27.42;17.42;;;21.40;99.90;;;;;;5063498;28;20398;-74
2023/09/11 01:38:35;;;;;;;24.27;16.90;;;21.40;99.90;;;;;;5088930;28;20153;-74
2023/09/11 01:41:04;;;;;;;23.77;16.80;;;21.30;99.90;;;;;;5067251;28;20079;-74
2023/09/11 01:43:35;;;;;;;25.40;16.65;;;21.30;99.90;;;;;;5087001;28;20044;-74
2023/09/11 01:46:02;;;;;;;25.25;16.08;;;21.30;99.90;;;;;;5062547;28;20109;-74
2023/09/11 01:48:30;;;;;;;25.30;16.70;;;21.30;99.90;;;;;;5086003;28;20051;-73
2023/09/11 01:50:56;;;;;;;22.00;16.58;;;21.30;99.90;;;;;;5069523;28;20543;-74
2023/09/11 01:53:22;;;;;;;24.10;16.67;;;21.20;99.90;;;;;;5065229;28;20056;-74
2023/09/11 01:55:48;;;;;;;28.05;16.45;;;21.20;99.90;;;;;;5081986;28;21682;-75
2023/09/11 01:58:14;;;;;;;25.50;17.15;;;21.20;99.90;;;;;;5063551;28;20657;-74
2023/09/11 02:00:40;;;;;;;26.77;17.02;;;21.20;99.90;;;;;;5057908;28;20072;-74
2023/09/11 02:03:05;;;;;;;24.27;17.05;;;21.20;99.90;;;;;;5068540;28;20056;-74
2023/09/11 02:05:31;;;;;;;25.00;16.70;;;21.20;99.90;;;;;;5067088;28;20052;-74
2023/09/11 02:07:57;;;;;;;25.58;17.50;;;21.20;99.90;;;;;;5080399;28;23645;-74
2023/09/11 02:10:22;;;;;;;25.88;16.98;;;21.20;99.90;;;;;;5065328;28;20031;-74
2023/09/11 02:12:48;;;;;;;29.85;17.38;;;21.20;99.90;;;;;;5090974;28;20486;-74
2023/09/11 02:15:14;;;;;;;28.20;16.50;;;21.20;99.90;;;;;;5063016;28;20522;-74
2023/09/11 02:17:40;;;;;;;25.17;16.75;;;21.10;99.90;;;;;;5081687;28;20036;-75
2023/09/11 02:20:06;;;;;;;32.30;17.45;;;21.10;99.90;;;;;;5069820;28;20032;-74
2023/09/11 02:22:32;;;;;;;27.67;16.93;;;21.10;99.90;;;;;;5071530;28;20029;-74
2023/09/11 02:24:57;;;;;;;28.88;16.88;;;21.10;99.90;;;;;;5071621;28;20133;-74
2023/09/11 02:27:23;;;;;;;23.05;16.88;;;21.10;99.90;;;;;;5082588;28;20044;-74
2023/09/11 02:29:49;;;;;;;28.55;17.73;;;21.10;99.90;;;;;;5085092;28;20055;-74
2023/09/11 02:32:15;;;;;;;21.63;17.40;;;21.00;99.90;;;;;;5089416;28;20036;-74
2023/09/11 02:34:40;;;;;;;23.48;17.27;;;21.00;99.90;;;;;;5081954;28;20457;-75
2023/09/11 02:37:07;;;;;;;24.65;17.13;;;21.00;99.90;;;;;;5071771;28;20044;-74
2023/09/11 02:39:32;;;;;;;22.77;17.40;;;21.00;99.90;;;;;;5077584;28;20052;-75
2023/09/11 02:41:58;;;;;;;25.92;17.45;;;21.00;99.90;;;;;;5065932;28;20097;-75
2023/09/11 02:44:24;;;;;;;27.88;18.45;;;20.90;99.90;;;;;;5066853;28;20039;-74
2023/09/11 02:46:49;;;;;;;27.20;17.48;;;20.90;99.90;;;;;;5053089;28;20044;-74
2023/09/11 02:49:17;;;;;;;24.80;17.55;;;20.90;99.90;;;;;;5088492;28;20581;-75
2023/09/11 02:51:43;;;;;;;27.90;18.85;;;20.80;99.90;;;;;;5086613;28;20044;-74
2023/09/11 02:54:08;;;;;;;24.05;18.20;;;20.80;99.90;;;;;;5064520;28;20050;-74
2023/09/11 02:56:37;;;;;;;23.10;18.13;;;20.80;99.90;;;;;;5064390;28;20070;-74
2023/09/11 02:59:04;;;;;;;24.63;18.40;;;20.70;99.90;;;;;;5065056;28;20384;-74
2023/09/11 03:01:30;;;;;;;29.55;19.58;;;20.70;99.90;;;;;;5080324;28;20063;-75
2023/09/11 03:03:56;;;;;;;29.85;19.38;;;20.60;99.90;;;;;;5080748;28;20090;-74
2023/09/11 03:06:22;;;;;;;28.50;20.05;;;20.60;99.90;;;;;;5081418;28;20123;-73
2023/09/11 03:08:47;;;;;;;28.02;19.40;;;20.60;99.90;;;;;;5088206;28;20040;-74
2023/09/11 03:11:13;;;;;;;25.60;18.73;;;20.60;99.90;;;;;;5084080;28;20040;-74
2023/09/11 03:13:39;;;;;;;24.13;18.80;;;20.50;99.90;;;;;;5068944;28;20037;-74
2023/09/11 03:16:09;;;;;;;27.92;18.60;;;20.50;99.90;;;;;;5069232;28;20040;-74
2023/09/11 03:18:36;;;;;;;25.55;19.02;;;20.50;99.90;;;;;;5079873;28;20044;-74
2023/09/11 03:21:03;;;;;;;26.73;20.23;;;20.50;99.90;;;;;;5067949;28;20048;-74
2023/09/11 03:23:29;;;;;;;26.30;19.60;;;20.50;99.90;;;;;;5059462;28;20052;-74
2023/09/11 03:25:55;;;;;;;32.73;20.90;;;20.40;99.90;;;;;;5053819;28;20040;-74
2023/09/11 03:28:20;;;;;;;27.38;19.50;;;20.40;99.90;;;;;;5079585;28;20040;-74
2023/09/11 03:30:46;;;;;;;29.15;19.42;;;20.40;99.90;;;;;;5069247;28;20043;-74
2023/09/11 03:33:12;;;;;;;27.45;20.33;;;20.40;99.90;;;;;;5086736;28;20081;-74
2023/09/11 03:35:38;;;;;;;27.73;20.83;;;20.40;99.90;;;;;;5088150;28;20133;-74
2023/09/11 03:38:04;;;;;;;30.52;19.98;;;20.40;99.90;;;;;;5068815;28;20493;-73
2023/09/11 03:40:29;;;;;;;25.20;19.77;;;20.40;99.90;;;;;;5078782;28;20060;-74
2023/09/11 03:42:55;;;;;;;28.50;20.35;;;20.40;99.90;;;;;;5063082;28;20040;-74
2023/09/11 03:45:21;;;;;;;30.13;20.05;;;20.30;99.90;;;;;;5087706;28;20047;-74
2023/09/11 03:47:47;;;;;;;31.70;20.05;;;20.30;99.90;;;;;;5071964;28;20036;-74
2023/09/11 03:50:12;;;;;;;24.65;20.15;;;20.20;99.90;;;;;;5074999;28;20051;-74
2023/09/11 03:52:38;;;;;;;26.70;20.38;;;20.20;99.90;;;;;;5076668;28;20032;-74
2023/09/11 03:55:04;;;;;;;30.13;19.55;;;20.20;99.90;;;;;;5083554;28;20042;-74
2023/09/11 03:57:29;;;;;;;32.58;20.80;;;20.20;99.90;;;;;;5078283;28;20483;-74
2023/09/11 03:59:55;;;;;;;30.27;21.10;;;20.10;99.90;;;;;;5063681;28;20487;-74
2023/09/11 04:02:21;;;;;;;26.40;19.92;;;20.10;99.90;;;;;;5067418;28;20379;-74
2023/09/11 04:04:46;;;;;;;28.00;20.45;;;20.10;99.90;;;;;;5062258;28;20530;-74
2023/09/11 04:07:12;;;;;;;29.15;20.17;;;20.10;99.90;;;;;;5078758;28;20040;-74
2023/09/11 04:09:38;;;;;;;27.27;21.30;;;20.10;99.90;;;;;;5066121;28;20116;-74
2023/09/11 04:12:04;;;;;;;29.58;22.63;;;20.10;99.90;;;;;;5087466;28;20689;-73
2023/09/11 04:14:30;;;;;;;29.48;19.38;;;20.00;99.90;;;;;;5084588;28;20044;-74
2023/09/11 04:16:56;;;;;;;25.17;19.67;;;20.00;99.90;;;;;;5059757;28;20044;-74
2023/09/11 04:19:22;;;;;;;27.50;22.17;;;20.00;99.90;;;;;;5081712;28;20032;-74
2023/09/11 04:21:47;;;;;;;29.67;20.38;;;20.00;99.90;;;;;;5064385;28;20544;-74
2023/09/11 04:24:13;;;;;;;24.77;20.10;;;20.00;99.90;;;;;;5061986;28;20123;-74
2023/09/11 04:26:40;;;;;;;27.67;21.63;;;19.90;99.90;;;;;;5065376;28;20078;-74
2023/09/11 04:29:07;;;;;;;29.30;21.85;;;19.90;99.90;;;;;;5067110;28;20094;-74
2023/09/11 04:31:33;;;;;;;27.50;21.77;;;19.90;99.90;;;;;;5084168;28;20652;-74
2023/09/11 04:33:58;;;;;;;29.30;21.05;;;19.80;99.90;;;;;;5063191;28;20066;-74
2023/09/11 04:36:24;;;;;;;30.73;20.92;;;19.90;99.90;;;;;;5060772;28;20411;-74
2023/09/11 04:38:50;;;;;;;30.20;22.20;;;19.80;99.90;;;;;;5064042;28;20136;-74
2023/09/11 04:41:16;;;;;;;29.52;20.85;;;19.80;99.90;;;;;;5087062;28;20518;-74
2023/09/11 04:43:42;;;;;;;29.67;22.73;;;19.80;99.90;;;;;;5085584;28;20541;-75
2023/09/11 04:46:07;;;;;;;32.15;22.77;;;19.80;99.90;;;;;;5068083;28;20052;-74
2023/09/11 04:48:33;;;;;;;27.30;22.65;;;19.80;99.90;;;;;;5063033;28;20502;-74
2023/09/11 04:50:59;;;;;;;28.15;20.60;;;19.90;99.90;;;;;;5062973;28;20115;-74
2023/09/11 04:53:25;;;;;;;28.23;22.48;;;19.90;99.90;;;;;;5059572;28;20094;-74
2023/09/11 04:55:50;;;;;;;30.27;22.30;;;19.90;99.90;;;;;;5061996;28;20119;-74
2023/09/11 04:58:16;;;;;;;30.20;22.00;;;19.90;99.90;;;;;;5078797;28;20109;-74
2023/09/11 05:00:42;;;;;;;24.63;21.45;;;19.90;99.90;;;;;;5056327;28;20483;-74
2023/09/11 05:03:08;;;;;;;31.65;22.88;;;19.80;99.90;;;;;;5061704;28;20530;-75
2023/09/11 05:05:38;;;;;;;32.30;21.48;;;19.80;99.90;;;;;;5054484;28;20081;-74
2023/09/11 05:08:06;;;;;;;30.45;21.85;;;19.80;99.90;;;;;;5065047;28;20029;-74
2023/09/11 05:10:31;;;;;;;32.35;22.75;;;19.80;99.90;;;;;;5057569;28;20079;-74
2023/09/11 05:12:57;;;;;;;30.38;22.38;;;19.80;99.90;;;;;;5061753;28;20068;-74
2023/09/11 05:15:23;;;;;;;33.35;22.52;;;19.80;99.90;;;;;;5062119;28;20048;-75
2023/09/11 05:17:49;;;;;;;26.98;21.60;;;19.80;99.90;;;;;;5063548;28;20033;-75
2023/09/11 05:20:15;;;;;;;35.22;23.15;;;19.80;99.90;;;;;;5047220;28;20151;-74
2023/09/11 05:22:41;;;;;;;31.42;23.13;;;19.90;99.90;;;;;;5067153;28;20072;-74
2023/09/11 05:25:08;;;;;;;32.00;23.40;;;19.90;99.90;;;;;;5066659;28;20110;-74
2023/09/11 05:27:33;;;;;;;32.83;23.60;;;19.90;99.90;;;;;;5069535;28;20048;-74
2023/09/11 05:29:59;;;;;;;35.88;23.85;;;19.90;99.90;;;;;;5057809;28;20588;-74
2023/09/11 05:32:25;;;;;;;25.70;22.58;;;19.90;99.90;;;;;;5061428;28;20062;-74
2023/09/11 05:34:52;;;;;;;28.35;21.40;;;19.90;99.90;;;;;;5061485;28;20036;-74
2023/09/11 05:37:18;;;;;;;;;;;20.00;99.90;;;;;;5065940;28;20071;-74
2023/09/11 05:39:44;;;;;;;32.00;21.97;;;19.90;99.90;;;;;;5065530;28;20337;-74
2023/09/11 05:42:10;;;;;;;30.92;22.73;;;19.90;99.90;;;;;;5071005;28;20387;-74
2023/09/11 05:44:36;;;;;;;37.97;22.92;;;20.00;99.90;;;;;;5066248;28;20041;-75
2023/09/11 05:47:03;;;;;;;33.70;22.40;;;20.00;99.90;;;;;;5071305;28;20038;-72
2023/09/11 05:49:28;;;;;;;32.90;22.42;;;20.10;99.90;;;;;;5061539;28;20038;-72
2023/09/11 05:51:55;;;;;;;31.88;22.75;;;20.10;99.90;;;;;;5064927;28;20418;-72
2023/09/11 05:54:21;;;;;;;31.17;22.17;;;20.10;99.90;;;;;;5062658;28;20119;-72
2023/09/11 05:56:46;;;;;;;34.33;22.55;;;20.20;99.90;;;;;;5065229;28;20123;-71
2023/09/11 05:59:12;;;;;;;32.42;20.77;;;20.20;99.90;;;;;;5066077;28;20048;-71
2023/09/11 06:01:38;;;;;;;27.30;21.23;;;20.20;99.90;;;;;;5062644;28;20045;-72
2023/09/11 06:04:04;;;;;;;28.65;20.83;;;20.30;99.90;;;;;;5064819;28;20048;-72
2023/09/11 06:06:30;;;;;;;29.48;21.77;;;20.30;99.90;;;;;;5059133;28;20076;-71
2023/09/11 06:08:57;;;;;;;32.10;20.92;;;20.30;99.90;;;;;;5069372;28;20052;-72
2023/09/11 06:11:23;;;;;;;29.80;21.02;;;20.40;99.90;;;;;;5062494;28;20167;-70
2023/09/11 06:13:49;;;;;;;31.75;21.80;;;20.40;99.90;;;;;;5055082;28;20496;-70
2023/09/11 06:16:15;;;;;;;28.75;20.52;;;20.50;99.90;;;;;;5069007;28;20078;-70
2023/09/11 06:18:40;;;;;;;28.92;20.35;;;20.50;99.90;;;;;;5069346;28;20052;-70
2023/09/11 06:21:06;;;;;;;28.90;20.38;;;20.50;99.90;;;;;;5062418;28;20044;-70
2023/09/11 06:23:32;;;;;;;27.98;21.05;;;20.60;99.90;;;;;;5061025;28;20475;-70
2023/09/11 06:25:57;;;;;;;30.00;20.65;;;20.60;99.90;;;;;;5056869;28;20045;-70
2023/09/11 06:28:23;;;;;;;30.17;20.98;;;20.70;99.90;;;;;;5057855;28;20045;-70
2023/09/11 06:30:49;;;;;;;34.25;21.35;;;20.70;99.90;;;;;;5069367;28;20048;-70
2023/09/11 06:33:15;;;;;;;29.02;21.33;;;20.80;99.90;;;;;;5063448;28;20161;-70
2023/09/11 06:35:40;;;;;;;29.63;21.40;;;20.80;99.90;;;;;;5060741;28;20111;-70
2023/09/11 06:38:06;;;;;;;29.63;19.80;;;20.90;99.90;;;;;;5061983;28;20365;-70
2023/09/11 06:40:32;;;;;;;31.58;21.60;;;21.00;99.90;;;;;;5061862;28;20059;-70
2023/09/11 06:42:57;;;;;;;31.15;20.85;;;21.00;99.90;;;;;;5055901;28;20562;-70
2023/09/11 06:45:23;;;;;;;27.92;20.67;;;21.00;99.90;;;;;;5061535;28;20376;-70
2023/09/11 06:47:49;;;;;;;28.40;20.75;;;21.10;99.90;;;;;;5064378;28;20395;-70
2023/09/11 06:50:15;;;;;;;29.88;19.40;;;21.20;99.90;;;;;;5067072;28;20044;-71
2023/09/11 06:52:40;;;;;;;30.13;20.02;;;21.20;99.90;;;;;;5060946;28;20048;-73
2023/09/11 06:55:07;;;;;;;32.15;19.73;;;21.30;99.90;;;;;;5063166;28;20043;-72
2023/09/11 06:57:33;;;;;;;28.63;19.58;;;21.30;99.90;;;;;;5065312;28;20060;-73
2023/09/11 06:59:59;;;;;;;27.88;19.85;;;21.40;99.90;;;;;;5058295;28;20400;-75
2023/09/11 07:02:25;;;;;;;27.83;19.38;;;21.50;99.90;;;;;;5064693;28;20067;-72
2023/09/11 07:04:50;;;;;;;27.75;20.70;;;21.50;99.90;;;;;;5086556;28;20052;-73
2023/09/11 07:07:16;;;;;;;25.40;19.83;;;21.60;99.90;;;;;;5070738;28;20461;-73
2023/09/11 07:09:42;;;;;;;29.48;19.65;;;21.60;99.90;;;;;;5089406;28;20044;-73
2023/09/11 07:12:07;;;;;;;28.13;19.08;;;21.70;99.90;;;;;;5090877;28;20035;-74
2023/09/11 07:14:33;;;;;;;33.90;19.65;;;21.80;99.90;;;;;;5072829;28;20047;-72
2023/09/11 07:17:02;;;;;;;31.25;19.95;;;21.80;99.90;;;;;;5070057;28;20123;-72
2023/09/11 07:19:27;;;;;;;31.80;19.90;;;21.90;99.90;;;;;;5062855;28;20051;-71
2023/09/11 07:21:53;;;;;;;29.05;20.63;;;21.90;99.90;;;;;;5071068;28;20047;-72
2023/09/11 07:24:19;;;;;;;35.70;21.17;;;22.00;99.90;;;;;;5076463;28;20097;-73
2023/09/11 07:26:44;;;;;;;27.13;21.17;;;22.10;99.90;;;;;;5088576;28;20445;-72
2023/09/11 07:29:10;;;;;;;31.25;24.13;;;22.10;99.90;;;;;;5080839;28;20117;-71
2023/09/11 07:31:36;;;;;;;28.50;23.70;;;22.20;99.90;;;;;;5088273;28;20528;-72
2023/09/11 07:34:02;;;;;;;32.90;22.83;;;22.30;99.90;;;;;;5072033;28;20070;-78
2023/09/11 07:36:29;;;;;;;33.38;22.90;;;22.30;99.90;;;;;;5084886;28;20048;-72
2023/09/11 07:38:55;;;;;;;34.90;23.17;;;22.30;99.90;;;;;;5056821;28;20040;-72
2023/09/11 07:41:21;;;;;;;28.75;21.73;;;22.40;99.90;;;;;;5085679;28;20067;-74
2023/09/11 07:43:50;;;;;;;27.60;22.03;;;22.50;99.90;;;;;;5088823;28;20089;-74
2023/09/11 07:46:18;;;;;;;29.30;21.25;;;22.60;99.90;;;;;;5087925;28;20052;-80
2023/09/11 07:48:44;;;;;;;28.42;21.58;;;22.60;99.90;;;;;;5089034;28;20047;-77
2023/09/11 07:51:10;;;;;;;26.75;20.98;;;22.70;99.90;;;;;;5070395;28;20127;-78
2023/09/11 07:53:35;;;;;;;34.22;22.48;;;22.70;99.90;;;;;;5090552;28;20559;-74
2023/09/11 07:56:08;;;;;;;36.08;21.63;;;22.80;99.90;;;;;;5081780;28;20048;-73
2023/09/11 07:58:37;;;;;;;29.40;21.92;;;22.80;99.90;;;;;;5058648;28;20055;-72
2023/09/11 08:01:03;;;;;;;30.80;21.90;;;22.90;99.90;;;;;;5068011;28;20051;-73
2023/09/11 08:03:32;;;;;;;35.80;22.43;;;22.90;99.90;;;;;;5081639;28;20533;-72
2023/09/11 08:06:01;;;;;;;29.90;22.48;;;23.00;99.90;;;;;;5088728;28;20040;-72
2023/09/11 08:08:27;;;;;;;28.45;21.02;;;23.00;99.90;;;;;;5071403;28;20412;-72
2023/09/11 08:10:53;;;;;;;31.77;22.90;;;23.10;99.90;;;;;;5071264;28;20048;-74
2023/09/11 08:13:19;;;;;;;29.30;20.33;;;23.10;99.90;;;;;;5076733;28;20505;-74
2023/09/11 08:15:45;;;;;;;29.50;20.35;;;23.10;99.90;;;;;;5062139;28;20372;-73
2023/09/11 08:18:10;;;;;;;27.00;20.63;;;23.20;99.90;;;;;;5066461;28;20053;-74
2023/09/11 08:20:37;;;;;;;27.27;19.50;;;23.30;99.90;;;;;;5089143;28;20118;-74
2023/09/11 08:23:03;;;;;;;28.17;18.52;;;23.40;99.90;;;;;;5087231;28;20378;-73
2023/09/11 08:25:29;;;;;;;27.73;17.60;;;23.50;99.90;;;;;;5079872;28;20051;-74
2023/09/11 08:27:55;;;;;;;26.92;18.83;;;23.60;99.90;;;;;;5082493;28;20087;-74
2023/09/11 08:30:21;;;;;;;24.75;18.42;;;23.70;99.90;;;;;;5085958;28;20210;-75
2023/09/11 08:32:46;;;;;;;24.33;16.58;;;23.70;99.90;;;;;;5080484;28;20117;-75
2023/09/11 08:35:12;;;;;;;28.92;17.98;;;23.80;99.90;;;;;;5061005;28;20148;-75
2023/09/11 08:37:38;;;;;;;24.88;17.73;;;23.90;99.90;;;;;;5080569;28;20036;-72
2023/09/11 08:40:04;;;;;;;24.48;16.58;;;24.00;99.90;;;;;;5064961;28;20503;-73
2023/09/11 08:42:30;;;;;;;22.30;16.20;;;24.10;99.90;;;;;;5081879;28;20048;-73
2023/09/11 08:44:56;;;;;;;21.15;15.30;;;24.20;99.90;;;;;;5087591;28;20044;-72
2023/09/11 08:47:29;;;;;;;21.98;14.45;;;24.20;99.90;;;;;;5089654;28;20036;-73
2023/09/11 08:49:57;;;;;;;25.88;15.77;;;24.30;99.90;;;;;;5089880;28;20105;-73
2023/09/11 08:52:23;;;;;;;27.70;15.55;;;24.40;99.90;;;;;;5081703;28;20043;-73
2023/09/11 08:54:53;;;;;;;26.77;15.75;;;24.40;99.90;;;;;;5070386;28;20052;-72
2023/09/11 08:57:21;;;;;;;19.25;13.65;;;24.50;99.90;;;;;;5067786;28;20174;-74
2023/09/11 08:59:52;;;;;;;36.72;18.83;;;24.60;99.90;;;;;;5074597;28;20124;-74
2023/09/11 09:02:20;;;;;;;21.25;13.48;;;24.60;99.90;;;;;;5090300;28;20075;-75
2023/09/11 09:04:47;;;;;;;44.47;20.00;;;24.70;99.90;;;;;;5082761;28;20074;-75
2023/09/11 09:07:15;;;;;;;20.33;11.93;;;24.80;99.90;;;;;;5070646;28;20053;-73
2023/09/11 09:09:44;;;;;;;20.92;12.77;;;24.90;99.90;;;;;;5060062;28;20380;-74
2023/09/11 09:12:10;;;;;;;21.38;13.52;;;24.90;99.90;;;;;;5071038;28;20048;-73
2023/09/11 09:14:39;;;;;;;28.08;12.35;;;25.00;99.90;;;;;;5069460;28;20464;-73
2023/09/11 09:17:06;;;;;;;22.15;12.23;;;25.00;99.90;;;;;;5066519;28;20078;-72
2023/09/11 09:19:33;;;;;;;22.83;12.60;;;25.10;99.90;;;;;;5092618;28;20044;-72
2023/09/11 09:22:05;;;;;;;22.42;12.43;;;25.10;99.90;;;;;;5055803;28;20486;-73
2023/09/11 09:24:35;;;;;;;20.42;12.05;;;25.20;99.90;;;;;;5089338;28;20048;-73
2023/09/11 09:27:05;;;;;;;19.65;10.50;;;25.20;99.90;;;;;;5069153;28;20086;-74
2023/09/11 09:29:35;;;;;;;22.80;11.00;;;25.30;99.90;;;;;;5073599;28;20428;-73
2023/09/11 09:32:02;;;;;;;27.13;12.52;;;25.40;99.90;;;;;;5070471;28;20039;-73
2023/09/11 09:34:28;;;;;;;19.38;11.25;;;25.50;99.90;;;;;;5083149;28;20044;-76
2023/09/11 09:36:55;;;;;;;18.97;11.10;;;25.50;99.90;;;;;;5079410;28;20044;-79
2023/09/11 09:39:24;;;;;;;23.40;11.13;;;25.60;99.90;;;;;;5074396;28;20085;-75
2023/09/11 09:42:07;;;;;;;17.27;12.18;;;25.70;99.90;;;;;;5055075;28;20047;-75
2023/09/11 09:44:47;;;;;;;21.50;11.68;;;25.80;99.90;;;;;;5063305;28;20048;-75
2023/09/11 09:47:16;;;;;;;18.30;10.80;;;25.80;99.90;;;;;;5068042;28;20055;-80
2023/09/11 09:49:53;;;;;;;18.40;10.98;;;25.90;99.90;;;;;;5088479;28;20043;-76
2023/09/11 09:52:21;;;;;;;24.15;11.73;;;25.90;99.90;;;;;;5089397;28;20052;-73
2023/09/11 09:54:50;;;;;;;24.33;11.55;;;26.00;99.90;;;;;;5084657;28;20134;-72
2023/09/11 09:57:19;;;;;;;19.55;11.48;;;26.00;99.90;;;;;;5089916;28;20043;-73
2023/09/11 09:59:50;;;;;;;17.20;10.55;;;26.10;99.90;;;;;;5083619;28;20105;-72
2023/09/11 10:02:25;;;;;;;17.25;10.52;;;26.10;99.90;;;;;;5077990;28;20037;-73
2023/09/11 10:04:55;;;;;;;18.50;10.43;;;26.20;99.90;;;;;;5067970;28;20048;-72
2023/09/11 10:07:41;;;;;;;18.25;9.80;;;26.30;99.90;;;;;;5070189;28;20425;-72
2023/09/11 10:10:21;;;;;;;20.08;10.20;;;26.30;99.90;;;;;;5069789;28;20419;-71
2023/09/11 10:13:09;;;;;;;14.23;9.20;;;26.40;99.90;;;;;;5086632;28;20115;-75
2023/09/11 10:15:40;;;;;;;20.30;9.77;;;26.40;99.90;;;;;;5066264;28;20110;-73
2023/09/11 10:18:07;;;;;;;19.55;9.68;;;26.50;99.90;;;;;;5072195;28;20116;-75
2023/09/11 10:20:33;;;;;;;16.70;8.27;;;26.50;99.90;;;;;;5082447;28;20044;-74
2023/09/11 10:23:02;;;;;;;18.80;9.00;;;26.60;99.90;;;;;;5064454;28;20071;-74
2023/09/11 10:25:32;;;;;;;14.23;7.85;;;26.70;99.90;;;;;;5063583;28;20060;-74
2023/09/11 10:28:03;;;;;;;13.45;8.88;;;26.80;99.90;;;;;;5046670;28;20098;-75
2023/09/11 10:30:41;;;;;;;16.80;9.13;;;26.80;99.90;;;;;;5067530;28;20494;-74
2023/09/11 10:33:18;;;;;;;18.60;9.35;;;26.90;99.90;;;;;;5089668;28;20502;-76
2023/09/11 10:35:46;;;;;;;19.88;10.25;;;26.90;99.90;;;;;;5066914;28;20052;-76
2023/09/11 10:38:14;;;;;;;20.08;8.60;;;26.90;99.90;;;;;;5059630;28;20056;-80
2023/09/11 10:40:42;;;;;;;16.73;8.55;;;27.00;99.90;;;;;;5061133;28;20054;-82
2023/09/11 10:43:09;;;;;;;15.35;9.02;;;27.00;99.90;;;;;;5090731;28;20052;-82
2023/09/11 10:45:35;;;;;;;17.70;8.52;;;27.10;99.90;;;;;;5068638;28;20035;-80
2023/09/11 10:48:01;;;;;;;15.30;8.50;;;27.10;99.90;;;;;;5058542;28;20112;-81
2023/09/11 10:50:37;;;;;;;19.73;8.73;;;27.20;99.90;;;;;;5086771;28;20036;-81
2023/09/11 10:53:07;;;;;;;16.55;9.23;;;27.30;99.90;;;;;;5064291;28;20133;-80
2023/09/11 10:55:34;;;;;;;18.73;9.90;;;27.30;99.90;;;;;;5080419;28;20043;-78
2023/09/11 10:58:04;;;;;;;16.80;9.82;;;27.40;99.90;;;;;;5089559;28;20036;-82
2023/09/11 11:00:35;;;;;;;15.68;8.98;;;27.40;99.90;;;;;;5085388;28;20089;-80
2023/09/11 11:03:00;;;;;;;15.43;9.90;;;27.40;99.90;;;;;;5050317;28;20057;-79
2023/09/11 11:05:26;;;;;;;15.97;9.80;;;27.50;99.90;;;;;;5059432;28;20047;-80
2023/09/11 11:07:52;;;;;;;16.20;9.53;;;27.60;99.90;;;;;;5063660;28;20055;-83
2023/09/11 11:10:19;;;;;;;20.13;10.33;;;27.60;99.90;;;;;;5063261;28;20075;-82
2023/09/11 11:12:46;;;;;;;15.35;10.02;;;27.60;99.90;;;;;;5055656;28;20041;-83
2023/09/11 11:15:25;;;;;;;14.52;9.73;;;27.60;99.90;;;;;;5059938;28;20123;-80
2023/09/11 11:18:11;;;;;;;15.68;10.95;;;27.70;99.90;;;;;;5059836;28;20052;-79
2023/09/11 11:20:57;;;;;;;17.47;9.63;;;27.70;99.90;;;;;;5061820;28;20052;-80
2023/09/11 11:23:25;;;;;;;18.88;10.98;;;27.70;99.90;;;;;;5056754;28;20068;-82
2023/09/11 11:25:51;;;;;;;15.02;10.18;;;27.80;99.90;;;;;;5067424;28;20051;-81
2023/09/11 11:28:21;;;;;;;15.60;10.47;;;27.80;99.90;;;;;;5067716;28;20033;-81
2023/09/11 11:30:52;;;;;;;17.27;10.27;;;27.80;99.90;;;;;;5058728;28;20567;-81
2023/09/11 11:33:23;;;;;;;13.90;10.25;;;27.80;99.90;;;;;;5064454;28;20041;-82
2023/09/11 11:35:51;;;;;;;19.48;11.65;;;27.90;99.90;;;;;;5065504;28;20155;-83
2023/09/11 11:38:17;;;;;;;16.35;10.43;;;27.90;99.90;;;;;;5064709;28;20048;-81
2023/09/11 11:40:44;;;;;;;14.70;9.52;;;27.80;99.90;;;;;;5061339;28;20404;-81
2023/09/11 11:43:10;;;;;;;16.73;9.65;;;27.90;99.90;;;;;;5064964;28;20044;-81
2023/09/11 11:45:47;;;;;;;18.83;10.32;;;27.90;99.90;;;;;;5061006;28;20411;-82
2023/09/11 11:48:17;;;;;;;14.15;10.70;;;28.00;99.90;;;;;;5063135;28;20040;-82
2023/09/11 11:50:45;;;;;;;14.82;10.55;;;28.00;99.90;;;;;;5054793;28;20044;-81
2023/09/11 11:53:19;;;;;;;19.30;10.38;;;28.10;99.90;;;;;;5079813;28;20131;-81
2023/09/11 11:55:45;;;;;;;15.73;9.35;;;28.10;99.90;;;;;;5061132;28;20083;-82
2023/09/11 11:58:13;;;;;;;14.60;9.57;;;28.20;99.90;;;;;;5067101;28;20117;-80
2023/09/11 12:00:39;;;;;;;12.15;10.00;;;28.20;99.90;;;;;;5063622;28;20048;-81
2023/09/11 12:03:07;;;;;;;;;;;28.20;99.90;;;;;;5063790;28;20053;-80
2023/09/11 12:05:36;;;;;;;10.27;8.50;;;28.30;99.90;;;;;;5063839;28;19927;-80
2023/09/11 12:08:03;;;;;;;16.33;10.02;;;28.30;99.90;;;;;;5042694;28;20040;-81
2023/09/11 12:10:29;;;;;;;13.57;10.38;;;28.40;99.90;;;;;;5062204;28;20578;-82
2023/09/11 12:12:55;;;;;;;13.50;9.85;;;28.40;99.90;;;;;;5058645;28;20029;-80
2023/09/11 12:15:21;;;;;;;18.43;10.27;;;28.40;99.90;;;;;;5067737;28;20442;-81
2023/09/11 12:17:49;;;;;;;14.13;9.70;;;28.40;99.90;;;;;;5062312;28;20116;-80
2023/09/11 12:20:21;;;;;;;17.08;10.60;;;28.40;99.90;;;;;;5067660;28;20307;-81
2023/09/11 12:22:48;;;;;;;13.65;10.80;;;28.50;99.90;;;;;;5069808;28;20045;-81
2023/09/11 12:25:15;;;;;;;16.55;11.90;;;28.50;99.90;;;;;;5063744;28;20044;-80
2023/09/11 12:27:43;;;;;;;19.20;12.70;;;28.50;99.90;;;;;;5064525;28;20052;-80
2023/09/11 12:30:10;;;;;;;15.65;10.90;;;28.50;99.90;;;;;;5060813;28;20079;-81